createdAt,value
2018-04-20T00:00:55.174Z,1016.29
2018-04-20T00:01:55.165Z,1016.3
2018-04-20T00:02:55.154Z,1016.3
2018-04-20T00:03:55.143Z,1016.3
2018-04-20T00:04:55.139Z,1016.31
2018-04-20T00:05:55.120Z,1016.29
2018-04-20T00:06:55.112Z,1016.27
2018-04-20T00:07:55.100Z,1016.29
2018-04-20T00:08:55.090Z,1016.22
2018-04-20T00:09:55.077Z,1016.28
2018-04-20T00:10:55.067Z,1016.24
2018-04-20T00:11:55.059Z,1016.26
2018-04-20T00:12:55.052Z,1016.26
2018-04-20T00:13:55.041Z,1016.21
2018-04-20T00:14:55.027Z,1016.19
2018-04-20T00:15:55.016Z,1016.27
2018-04-20T00:16:55.003Z,1016.22
2018-04-20T00:17:54.994Z,1016.2
2018-04-20T00:18:54.982Z,1016.22
2018-04-20T00:19:54.972Z,1016.22
2018-04-20T00:20:54.965Z,1016.17
2018-04-20T00:21:54.951Z,1016.17
2018-04-20T00:22:54.940Z,1016.13
2018-04-20T00:23:54.933Z,1016.15
2018-04-20T00:24:54.918Z,1016.14
2018-04-20T00:25:54.907Z,1016.13
2018-04-20T00:26:54.896Z,1016.12
2018-04-20T00:27:54.887Z,1016.12
2018-04-20T00:28:54.874Z,1016.08
2018-04-20T00:29:54.865Z,1016.07
2018-04-20T00:30:54.853Z,1016.1
2018-04-20T00:31:54.841Z,1016.07
2018-04-20T00:32:54.831Z,1016.04
2018-04-20T00:33:54.821Z,1016.08
2018-04-20T00:34:54.811Z,1016.07
2018-04-20T00:35:54.799Z,1016.03
2018-04-20T00:36:54.788Z,1016.02
2018-04-20T00:37:54.980Z,1016.02
2018-04-20T00:38:54.768Z,1016
2018-04-20T00:39:54.757Z,1015.99
2018-04-20T00:40:54.748Z,1015.96
2018-04-20T00:41:54.736Z,1015.98
2018-04-20T00:42:54.725Z,1015.98
2018-04-20T00:43:54.713Z,1015.95
2018-04-20T00:44:54.702Z,1015.93
2018-04-20T00:45:54.690Z,1015.91
2018-04-20T00:46:54.679Z,1015.92
2018-04-20T00:47:54.667Z,1015.88
2018-04-20T00:48:54.657Z,1015.88
2018-04-20T00:49:54.646Z,1015.88
2018-04-20T00:50:54.634Z,1015.88
2018-04-20T00:51:54.624Z,1015.88
2018-04-20T00:52:54.621Z,1015.86
2018-04-20T00:53:54.601Z,1015.85
2018-04-20T00:54:54.594Z,1015.81
2018-04-20T00:55:54.579Z,1015.82
2018-04-20T00:56:54.569Z,1015.8
2018-04-20T00:57:54.564Z,1015.77
2018-04-20T00:58:54.552Z,1015.79
2018-04-20T00:59:54.539Z,1015.8
2018-04-20T01:00:54.523Z,1015.78
2018-04-20T01:01:54.510Z,1015.75
2018-04-20T01:02:54.499Z,1015.72
2018-04-20T01:03:54.490Z,1015.7
2018-04-20T01:04:54.478Z,1015.7
2018-04-20T01:05:54.467Z,1015.68
2018-04-20T01:06:54.456Z,1015.66
2018-04-20T01:07:54.445Z,1015.68
2018-04-20T01:08:54.431Z,1015.69
2018-04-20T01:09:54.419Z,1015.69
2018-04-20T01:10:54.409Z,1015.7
2018-04-20T01:11:54.397Z,1015.68
2018-04-20T01:12:54.387Z,1015.64
2018-04-20T01:13:54.373Z,1015.59
2018-04-20T01:14:54.363Z,1015.66
2018-04-20T01:15:54.350Z,1015.61
2018-04-20T01:16:54.345Z,1015.64
2018-04-20T01:17:54.335Z,1015.59
2018-04-20T01:18:54.313Z,1015.58
2018-04-20T01:19:54.302Z,1015.54
2018-04-20T01:20:54.292Z,1015.6
2018-04-20T01:21:54.294Z,1015.55
2018-04-20T01:22:54.267Z,1015.55
2018-04-20T01:23:54.256Z,1015.55
2018-04-20T01:24:54.243Z,1015.53
2018-04-20T01:25:54.238Z,1015.54
2018-04-20T01:26:54.224Z,1015.54
2018-04-20T01:27:54.210Z,1015.52
2018-04-20T01:28:54.197Z,1015.53
2018-04-20T01:29:54.188Z,1015.53
2018-04-20T01:30:54.175Z,1015.51
2018-04-20T01:31:54.161Z,1015.49
2018-04-20T01:32:54.155Z,1015.47
2018-04-20T01:33:54.139Z,1015.53
2018-04-20T01:34:54.126Z,1015.49
2018-04-20T01:35:54.114Z,1015.52
2018-04-20T01:36:54.101Z,1015.53
2018-04-20T01:37:54.091Z,1015.47
2018-04-20T01:38:54.081Z,1015.5
2018-04-20T01:39:54.069Z,1015.46
2018-04-20T01:40:54.054Z,1015.44
2018-04-20T01:41:54.047Z,1015.46
2018-04-20T01:42:54.030Z,1015.44
2018-04-20T01:43:54.021Z,1015.45
2018-04-20T01:44:54.004Z,1015.42
2018-04-20T01:45:53.994Z,1015.44
2018-04-20T01:46:53.981Z,1015.46
2018-04-20T01:47:53.974Z,1015.45
2018-04-20T01:48:53.959Z,1015.44
2018-04-20T01:49:53.949Z,1015.45
2018-04-20T01:50:53.934Z,1015.4
2018-04-20T01:51:53.921Z,1015.4
2018-04-20T01:52:53.910Z,1015.42
2018-04-20T01:53:53.902Z,1015.39
2018-04-20T01:54:53.889Z,1015.37
2018-04-20T01:55:53.878Z,1015.36
2018-04-20T01:56:53.861Z,1015.36
2018-04-20T01:57:53.851Z,1015.38
2018-04-20T01:58:53.837Z,1015.35
2018-04-20T01:59:53.824Z,1015.37
2018-04-20T02:00:53.860Z,1015.36
2018-04-20T02:01:53.801Z,1015.36
2018-04-20T02:02:53.788Z,1015.35
2018-04-20T02:03:53.777Z,1015.32
2018-04-20T02:04:53.764Z,1015.33
2018-04-20T02:05:53.752Z,1015.34
2018-04-20T02:06:53.839Z,1015.3
2018-04-20T02:07:53.729Z,1015.29
2018-04-20T02:08:53.718Z,1015.29
2018-04-20T02:09:53.705Z,1015.3
2018-04-20T02:10:53.692Z,1015.29
2018-04-20T02:11:53.682Z,1015.31
2018-04-20T02:12:53.670Z,1015.29
2018-04-20T02:13:53.662Z,1015.28
2018-04-20T02:14:53.647Z,1015.23
2018-04-20T02:15:53.634Z,1015.25
2018-04-20T02:16:53.623Z,1015.26
2018-04-20T02:17:53.609Z,1015.27
2018-04-20T02:18:53.629Z,1015.26
2018-04-20T02:19:53.586Z,1015.24
2018-04-20T02:20:53.573Z,1015.26
2018-04-20T02:21:53.560Z,1015.23
2018-04-20T02:22:53.557Z,1015.28
2018-04-20T02:23:53.538Z,1015.25
2018-04-20T02:24:53.528Z,1015.22
2018-04-20T02:25:53.512Z,1015.21
2018-04-20T02:26:53.512Z,1015.26
2018-04-20T02:27:53.489Z,1015.24
2018-04-20T02:28:53.476Z,1015.28
2018-04-20T02:29:53.467Z,1015.24
2018-04-20T02:30:53.455Z,1015.22
2018-04-20T02:31:53.439Z,1015.23
2018-04-20T02:32:53.429Z,1015.25
2018-04-20T02:33:53.415Z,1015.22
2018-04-20T02:34:53.403Z,1015.22
2018-04-20T02:35:53.391Z,1015.21
2018-04-20T02:36:53.379Z,1015.21
2018-04-20T02:37:53.570Z,1015.22
2018-04-20T02:38:53.366Z,1015.2
2018-04-20T02:39:53.352Z,1015.19
2018-04-20T02:40:53.332Z,1015.18
2018-04-20T02:41:53.317Z,1015.19
2018-04-20T02:42:53.310Z,1015.17
2018-04-20T02:43:53.299Z,1015.14
2018-04-20T02:44:53.282Z,1015.17
2018-04-20T02:45:53.270Z,1015.13
2018-04-20T02:46:53.257Z,1015.17
2018-04-20T02:47:53.295Z,1015.13
2018-04-20T02:48:53.233Z,1015.16
2018-04-20T02:49:53.220Z,1015.13
2018-04-20T02:50:53.207Z,1015.14
2018-04-20T02:51:53.196Z,1015.16
2018-04-20T02:52:53.184Z,1015.16
2018-04-20T02:53:53.170Z,1015.12
2018-04-20T02:54:53.159Z,1015.15
2018-04-20T02:55:53.144Z,1015.11
2018-04-20T02:56:53.135Z,1015.17
2018-04-20T02:57:53.122Z,1015.13
2018-04-20T02:58:53.110Z,1015.15
2018-04-20T02:59:53.096Z,1015.12
2018-04-20T03:00:53.084Z,1015.12
2018-04-20T03:01:53.070Z,1015.1
2018-04-20T03:02:53.058Z,1015.11
2018-04-20T03:03:53.043Z,1015.13
2018-04-20T03:04:53.032Z,1015.05
2018-04-20T03:05:53.022Z,1015.05
2018-04-20T03:06:53.007Z,1015.08
2018-04-20T03:07:52.997Z,1015.05
2018-04-20T03:08:52.984Z,1015.06
2018-04-20T03:09:52.970Z,1015.02
2018-04-20T03:10:52.959Z,1015.02
2018-04-20T03:11:52.955Z,1015.04
2018-04-20T03:12:52.930Z,1015.02
2018-04-20T03:13:52.921Z,1015
2018-04-20T03:14:52.909Z,1014.97
2018-04-20T03:15:52.893Z,1015
2018-04-20T03:16:52.883Z,1015
2018-04-20T03:17:52.868Z,1014.95
2018-04-20T03:18:52.855Z,1014.98
2018-04-20T03:19:52.842Z,1014.96
2018-04-20T03:20:52.830Z,1014.98
2018-04-20T03:21:52.822Z,1014.95
2018-04-20T03:22:52.806Z,1014.95
2018-04-20T03:23:52.795Z,1014.95
2018-04-20T03:24:52.782Z,1014.92
2018-04-20T03:25:52.767Z,1014.94
2018-04-20T03:26:52.753Z,1014.92
2018-04-20T03:27:52.741Z,1014.91
2018-04-20T03:28:52.729Z,1014.98
2018-04-20T03:29:52.717Z,1014.95
2018-04-20T03:30:52.704Z,1014.95
2018-04-20T03:31:52.692Z,1014.95
2018-04-20T03:32:52.682Z,1014.96
2018-04-20T03:33:52.669Z,1014.96
2018-04-20T03:34:52.653Z,1014.97
2018-04-20T03:35:52.644Z,1014.94
2018-04-20T03:36:52.627Z,1014.93
2018-04-20T03:37:52.612Z,1014.9
2018-04-20T03:38:52.601Z,1014.91
2018-04-20T03:39:52.592Z,1014.96
2018-04-20T03:40:52.579Z,1014.97
2018-04-20T03:41:52.564Z,1015.05
2018-04-20T03:42:52.550Z,1015.14
2018-04-20T03:43:52.538Z,1015.09
2018-04-20T03:44:52.526Z,1015.02
2018-04-20T03:45:52.513Z,1014.94
2018-04-20T03:46:52.501Z,1014.99
2018-04-20T03:47:52.493Z,1014.99
2018-04-20T03:48:52.478Z,1015.02
2018-04-20T03:49:52.463Z,1014.98
2018-04-20T03:50:52.450Z,1014.95
2018-04-20T03:51:52.437Z,1014.91
2018-04-20T03:52:52.426Z,1014.9
2018-04-20T03:53:52.410Z,1014.96
2018-04-20T03:54:52.399Z,1014.91
2018-04-20T03:55:52.384Z,1014.95
2018-04-20T03:56:52.370Z,1014.95
2018-04-20T03:57:52.361Z,1014.9
2018-04-20T03:58:52.346Z,1014.91
2018-04-20T03:59:52.331Z,1014.91
2018-04-20T04:00:52.318Z,1014.91
2018-04-20T04:01:52.305Z,1014.9
2018-04-20T04:02:52.296Z,1014.91
2018-04-20T04:03:52.281Z,1014.87
2018-04-20T04:04:52.268Z,1014.9
2018-04-20T04:05:52.253Z,1014.9
2018-04-20T04:06:52.238Z,1014.89
2018-04-20T04:07:52.226Z,1014.87
2018-04-20T04:08:52.216Z,1014.82
2018-04-20T04:09:52.199Z,1014.83
2018-04-20T04:10:52.212Z,1014.87
2018-04-20T04:11:52.174Z,1014.86
2018-04-20T04:12:52.169Z,1014.83
2018-04-20T04:13:52.149Z,1014.85
2018-04-20T04:14:52.133Z,1014.85
2018-04-20T04:15:52.120Z,1014.84
2018-04-20T04:16:52.109Z,1014.83
2018-04-20T04:17:52.093Z,1014.83
2018-04-20T04:18:52.081Z,1014.86
2018-04-20T04:19:52.072Z,1014.83
2018-04-20T04:20:52.054Z,1014.86
2018-04-20T04:21:52.043Z,1014.84
2018-04-20T04:22:52.028Z,1014.83
2018-04-20T04:23:52.016Z,1014.83
2018-04-20T04:24:52.002Z,1014.81
2018-04-20T04:25:51.992Z,1014.84
2018-04-20T04:26:51.976Z,1014.82
2018-04-20T04:27:51.963Z,1014.82
2018-04-20T04:28:51.957Z,1014.84
2018-04-20T04:29:51.935Z,1014.82
2018-04-20T04:30:51.923Z,1014.84
2018-04-20T04:31:51.909Z,1014.82
2018-04-20T04:32:51.896Z,1014.83
2018-04-20T04:33:51.886Z,1014.84
2018-04-20T04:34:51.869Z,1014.81
2018-04-20T04:35:51.854Z,1014.8
2018-04-20T04:36:51.843Z,1014.8
2018-04-20T04:37:52.032Z,1014.78
2018-04-20T04:38:51.817Z,1014.77
2018-04-20T04:39:51.801Z,1014.8
2018-04-20T04:40:51.796Z,1014.77
2018-04-20T04:41:51.775Z,1014.82
2018-04-20T04:42:51.766Z,1014.8
2018-04-20T04:43:51.749Z,1014.82
2018-04-20T04:44:51.734Z,1014.84
2018-04-20T04:45:51.723Z,1014.87
2018-04-20T04:46:51.709Z,1014.85
2018-04-20T04:47:51.764Z,1014.88
2018-04-20T04:48:51.683Z,1014.85
2018-04-20T04:49:51.670Z,1014.84
2018-04-20T04:50:51.655Z,1014.86
2018-04-20T04:51:51.641Z,1014.83
2018-04-20T04:52:51.630Z,1014.81
2018-04-20T04:53:51.617Z,1014.8
2018-04-20T04:54:51.603Z,1014.82
2018-04-20T04:55:51.591Z,1014.82
2018-04-20T04:56:51.578Z,1014.81
2018-04-20T04:57:51.564Z,1014.83
2018-04-20T04:58:51.548Z,1014.85
2018-04-20T04:59:51.538Z,1014.85
2018-04-20T05:00:51.528Z,1014.81
2018-04-20T05:01:51.510Z,1014.82
2018-04-20T05:02:51.506Z,1014.81
2018-04-20T05:03:51.487Z,1014.84
2018-04-20T05:04:51.471Z,1014.85
2018-04-20T05:05:51.458Z,1014.84
2018-04-20T05:06:51.443Z,1014.84
2018-04-20T05:07:51.434Z,1014.85
2018-04-20T05:08:51.418Z,1014.83
2018-04-20T05:09:51.405Z,1014.84
2018-04-20T05:10:51.393Z,1014.76
2018-04-20T05:11:51.377Z,1014.78
2018-04-20T05:12:51.365Z,1014.84
2018-04-20T05:13:51.351Z,1014.86
2018-04-20T05:14:51.336Z,1014.83
2018-04-20T05:15:51.324Z,1014.81
2018-04-20T05:16:51.310Z,1014.86
2018-04-20T05:17:51.300Z,1014.86
2018-04-20T05:18:51.285Z,1014.84
2018-04-20T05:19:51.272Z,1014.83
2018-04-20T05:20:51.265Z,1014.86
2018-04-20T05:21:51.246Z,1014.86
2018-04-20T05:22:51.233Z,1014.85
2018-04-20T05:23:51.218Z,1014.88
2018-04-20T05:24:51.213Z,1014.89
2018-04-20T05:25:51.194Z,1014.89
2018-04-20T05:26:51.181Z,1014.92
2018-04-20T05:27:51.168Z,1014.89
2018-04-20T05:28:51.158Z,1014.91
2018-04-20T05:29:51.142Z,1014.89
2018-04-20T05:30:51.128Z,1014.88
2018-04-20T05:31:51.116Z,1014.89
2018-04-20T05:32:51.105Z,1014.89
2018-04-20T05:33:51.094Z,1014.88
2018-04-20T05:34:51.087Z,1014.91
2018-04-20T05:35:51.065Z,1014.89
2018-04-20T05:36:51.048Z,1014.93
2018-04-20T05:37:51.037Z,1014.94
2018-04-20T05:38:51.025Z,1014.92
2018-04-20T05:39:51.010Z,1014.93
2018-04-20T05:40:51.001Z,1014.95
2018-04-20T05:41:50.990Z,1014.93
2018-04-20T05:42:50.971Z,1014.92
2018-04-20T05:43:50.960Z,1014.93
2018-04-20T05:44:50.945Z,1014.95
2018-04-20T05:45:50.937Z,1014.98
2018-04-20T05:46:50.919Z,1014.97
2018-04-20T05:47:50.913Z,1014.96
2018-04-20T05:48:50.896Z,1014.95
2018-04-20T05:49:50.881Z,1014.96
2018-04-20T05:50:50.870Z,1014.96
2018-04-20T05:51:50.860Z,1014.94
2018-04-20T05:52:50.843Z,1014.99
2018-04-20T05:53:50.829Z,1014.96
2018-04-20T05:54:50.818Z,1014.93
2018-04-20T05:55:50.806Z,1015
2018-04-20T05:56:50.792Z,1014.95
2018-04-20T05:57:50.779Z,1014.96
2018-04-20T05:58:50.767Z,1014.95
2018-04-20T05:59:50.754Z,1014.96
2018-04-20T06:00:50.742Z,1014.93
2018-04-20T06:01:50.730Z,1014.92
2018-04-20T06:02:50.718Z,1014.95
2018-04-20T06:03:50.709Z,1014.97
2018-04-20T06:04:50.691Z,1014.97
2018-04-20T06:05:50.680Z,1014.96
2018-04-20T06:06:50.667Z,1014.97
2018-04-20T06:07:50.654Z,1014.97
2018-04-20T06:08:50.647Z,1014.98
2018-04-20T06:09:50.630Z,1015.02
2018-04-20T06:10:50.619Z,1015
2018-04-20T06:11:50.606Z,1014.99
2018-04-20T06:12:50.631Z,1014.97
2018-04-20T06:13:50.580Z,1015.02
2018-04-20T06:14:50.598Z,1014.97
2018-04-20T06:15:50.556Z,1014.95
2018-04-20T06:16:50.543Z,1014.98
2018-04-20T06:17:50.588Z,1014.96
2018-04-20T06:18:50.519Z,1014.98
2018-04-20T06:19:50.507Z,1014.96
2018-04-20T06:20:50.519Z,1014.95
2018-04-20T06:21:50.486Z,1014.98
2018-04-20T06:22:50.476Z,1014.99
2018-04-20T06:23:50.465Z,1014.97
2018-04-20T06:24:50.450Z,1014.97
2018-04-20T06:25:50.437Z,1014.98
2018-04-20T06:26:50.478Z,1014.98
2018-04-20T06:27:50.413Z,1015
2018-04-20T06:28:50.399Z,1014.98
2018-04-20T06:29:50.388Z,1015.01
2018-04-20T06:30:50.383Z,1015.01
2018-04-20T06:31:50.367Z,1015.01
2018-04-20T06:32:50.360Z,1015.02
2018-04-20T06:33:50.343Z,1014.97
2018-04-20T06:34:50.336Z,1014.95
2018-04-20T06:35:50.321Z,1014.96
2018-04-20T06:36:50.307Z,1014.95
2018-04-20T06:37:50.299Z,1014.97
2018-04-20T06:38:50.285Z,1014.95
2018-04-20T06:39:50.277Z,1014.94
2018-04-20T06:40:50.262Z,1014.96
2018-04-20T06:41:50.253Z,1014.94
2018-04-20T06:42:50.246Z,1014.98
2018-04-20T06:43:50.233Z,1014.94
2018-04-20T06:44:50.223Z,1014.94
2018-04-20T06:45:50.206Z,1014.92
2018-04-20T06:46:50.196Z,1014.94
2018-04-20T06:47:50.196Z,1014.86
2018-04-20T06:48:50.172Z,1014.88
2018-04-20T06:49:50.161Z,1014.84
2018-04-20T06:50:50.154Z,1014.87
2018-04-20T06:51:50.150Z,1014.88
2018-04-20T06:52:50.129Z,1014.9
2018-04-20T06:53:50.123Z,1014.87
2018-04-20T06:54:50.109Z,1014.9
2018-04-20T06:55:50.097Z,1014.89
2018-04-20T06:56:50.129Z,1014.87
2018-04-20T06:57:50.077Z,1014.88
2018-04-20T06:58:50.071Z,1014.9
2018-04-20T06:59:50.057Z,1014.91
2018-04-20T07:00:50.044Z,1014.91
2018-04-20T07:01:50.036Z,1014.93
2018-04-20T07:02:50.022Z,1014.9
2018-04-20T07:03:50.012Z,1014.94
2018-04-20T07:04:50.012Z,1014.92
2018-04-20T07:05:49.991Z,1014.93
2018-04-20T07:06:49.981Z,1014.93
2018-04-20T07:07:49.972Z,1014.96
2018-04-20T07:08:49.968Z,1014.95
2018-04-20T07:09:49.949Z,1014.95
2018-04-20T07:10:49.943Z,1014.97
2018-04-20T07:11:49.933Z,1014.99
2018-04-20T07:12:49.920Z,1014.92
2018-04-20T07:13:49.914Z,1014.96
2018-04-20T07:14:49.901Z,1014.96
2018-04-20T07:15:49.895Z,1014.95
2018-04-20T07:16:49.879Z,1014.96
2018-04-20T07:17:49.869Z,1014.98
2018-04-20T07:18:49.862Z,1014.97
2018-04-20T07:19:49.850Z,1014.96
2018-04-20T07:20:49.842Z,1014.94
2018-04-20T07:21:49.836Z,1014.94
2018-04-20T07:22:49.822Z,1014.96
2018-04-20T07:23:49.815Z,1014.9
2018-04-20T07:24:49.801Z,1014.92
2018-04-20T07:25:49.794Z,1014.9
2018-04-20T07:26:49.784Z,1014.9
2018-04-20T07:27:49.773Z,1014.94
2018-04-20T07:28:49.763Z,1014.92
2018-04-20T07:29:49.758Z,1014.97
2018-04-20T07:30:49.743Z,1014.95
2018-04-20T07:31:49.735Z,1014.98
2018-04-20T07:32:49.733Z,1014.98
2018-04-20T07:33:49.722Z,1014.97
2018-04-20T07:34:49.711Z,1014.97
2018-04-20T07:35:49.699Z,1014.98
2018-04-20T07:36:49.689Z,1015
2018-04-20T07:37:49.682Z,1014.99
2018-04-20T07:38:49.672Z,1014.98
2018-04-20T07:39:49.663Z,1014.98
2018-04-20T07:40:49.653Z,1014.95
2018-04-20T07:41:49.646Z,1014.95
2018-04-20T07:42:49.641Z,1014.98
2018-04-20T07:43:49.626Z,1014.96
2018-04-20T07:44:49.618Z,1014.92
2018-04-20T07:45:49.609Z,1014.96
2018-04-20T07:46:49.605Z,1014.97
2018-04-20T07:47:49.593Z,1014.96
2018-04-20T07:48:49.586Z,1014.96
2018-04-20T07:49:49.573Z,1014.94
2018-04-20T07:50:49.570Z,1014.95
2018-04-20T07:51:49.567Z,1014.96
2018-04-20T07:52:49.551Z,1014.96
2018-04-20T07:53:49.541Z,1014.94
2018-04-20T07:54:49.540Z,1014.98
2018-04-20T07:55:49.526Z,1014.95
2018-04-20T07:56:49.522Z,1014.96
2018-04-20T07:57:49.510Z,1014.96
2018-04-20T07:58:49.501Z,1014.95
2018-04-20T07:59:49.494Z,1014.97
2018-04-20T08:00:49.487Z,1014.97
2018-04-20T08:01:49.478Z,1014.96
2018-04-20T08:02:49.471Z,1014.98
2018-04-20T08:03:49.469Z,1014.98
2018-04-20T08:04:49.461Z,1014.99
2018-04-20T08:05:49.445Z,1015
2018-04-20T08:06:49.439Z,1015.01
2018-04-20T08:07:49.431Z,1014.97
2018-04-20T08:08:49.423Z,1015.02
2018-04-20T08:09:49.415Z,1015.06
2018-04-20T08:10:49.407Z,1015.16
2018-04-20T08:11:49.401Z,1015.13
2018-04-20T08:12:49.393Z,1015.19
2018-04-20T08:13:49.443Z,1015.15
2018-04-20T08:14:49.381Z,1015.15
2018-04-20T08:15:49.372Z,1015.15
2018-04-20T08:16:49.367Z,1015.21
2018-04-20T08:17:49.361Z,1015.19
2018-04-20T08:18:49.357Z,1015.24
2018-04-20T08:19:49.352Z,1015.2
2018-04-20T08:20:49.346Z,1015.18
2018-04-20T08:21:49.339Z,1015.21
2018-04-20T08:22:49.336Z,1015.23
2018-04-20T08:23:49.329Z,1015.24
2018-04-20T08:24:49.324Z,1015.23
2018-04-20T08:25:49.329Z,1015.2
2018-04-20T08:26:49.313Z,1015.27
2018-04-20T08:27:49.307Z,1015.25
2018-04-20T08:28:49.316Z,1015.24
2018-04-20T08:29:49.309Z,1015.26
2018-04-20T08:30:49.298Z,1015.21
2018-04-20T08:31:49.291Z,1015.19
2018-04-20T08:32:49.287Z,1015.17
2018-04-20T08:33:49.292Z,1015.24
2018-04-20T08:34:49.279Z,1015.31
2018-04-20T08:35:49.272Z,1015.28
2018-04-20T08:36:49.271Z,1015.32
2018-04-20T08:37:49.265Z,1015.36
2018-04-20T08:38:49.464Z,1015.34
2018-04-20T08:39:49.258Z,1015.33
2018-04-20T08:40:49.254Z,1015.34
2018-04-20T08:41:49.249Z,1015.37
2018-04-20T08:42:49.246Z,1015.33
2018-04-20T08:43:49.243Z,1015.28
2018-04-20T08:44:49.238Z,1015.3
2018-04-20T08:45:49.235Z,1015.32
2018-04-20T08:46:49.231Z,1015.29
2018-04-20T08:47:49.232Z,1015.31
2018-04-20T08:48:49.225Z,1015.31
2018-04-20T08:49:49.220Z,1015.33
2018-04-20T08:50:49.221Z,1015.31
2018-04-20T08:51:49.215Z,1015.29
2018-04-20T08:52:49.210Z,1015.29
2018-04-20T08:53:49.207Z,1015.27
2018-04-20T08:54:49.202Z,1015.26
2018-04-20T08:55:49.198Z,1015.27
2018-04-20T08:56:49.195Z,1015.22
2018-04-20T08:57:49.192Z,1015.29
2018-04-20T08:58:49.187Z,1015.25
2018-04-20T08:59:49.183Z,1015.28
2018-04-20T09:00:49.179Z,1015.26
2018-04-20T09:01:49.178Z,1015.28
2018-04-20T09:02:49.172Z,1015.24
2018-04-20T09:03:49.173Z,1015.27
2018-04-20T09:04:49.169Z,1015.27
2018-04-20T09:05:49.161Z,1015.32
2018-04-20T09:06:49.161Z,1015.35
2018-04-20T09:07:49.154Z,1015.41
2018-04-20T09:08:49.152Z,1015.37
2018-04-20T09:09:49.146Z,1015.38
2018-04-20T09:10:49.144Z,1015.35
2018-04-20T09:11:49.138Z,1015.37
2018-04-20T09:12:49.136Z,1015.39
2018-04-20T09:13:49.134Z,1015.42
2018-04-20T09:14:49.129Z,1015.4
2018-04-20T09:15:49.128Z,1015.31
2018-04-20T09:16:49.125Z,1015.33
2018-04-20T09:17:49.120Z,1015.38
2018-04-20T09:18:49.118Z,1015.38
2018-04-20T09:19:49.117Z,1015.37
2018-04-20T09:20:49.115Z,1015.31
2018-04-20T09:21:49.110Z,1015.32
2018-04-20T09:22:49.110Z,1015.35
2018-04-20T09:23:49.113Z,1015.33
2018-04-20T09:24:49.105Z,1015.3
2018-04-20T09:25:49.102Z,1015.27
2018-04-20T09:26:49.101Z,1015.31
2018-04-20T09:27:49.100Z,1015.28
2018-04-20T09:28:49.095Z,1015.26
2018-04-20T09:29:49.095Z,1015.24
2018-04-20T09:30:49.092Z,1015.19
2018-04-20T09:31:49.097Z,1015.2
2018-04-20T09:32:49.090Z,1015.2
2018-04-20T09:33:49.092Z,1015.19
2018-04-20T09:34:49.086Z,1015.22
2018-04-20T09:35:49.086Z,1015.19
2018-04-20T09:36:49.081Z,1015.22
2018-04-20T09:37:49.082Z,1015.14
2018-04-20T09:38:49.079Z,1015.18
2018-04-20T09:39:49.128Z,1015.13
2018-04-20T09:40:49.074Z,1015.1
2018-04-20T09:41:49.076Z,1015.12
2018-04-20T09:42:49.072Z,1015.14
2018-04-20T09:43:49.068Z,1015.14
2018-04-20T09:44:49.067Z,1015.15
2018-04-20T09:45:49.065Z,1015.15
2018-04-20T09:46:49.060Z,1015.21
2018-04-20T09:47:49.063Z,1015.17
2018-04-20T09:48:49.056Z,1015.2
2018-04-20T09:49:49.053Z,1015.15
2018-04-20T09:50:49.052Z,1015.15
2018-04-20T09:51:49.048Z,1015.14
2018-04-20T09:52:49.048Z,1015.13
2018-04-20T09:53:49.044Z,1015.14
2018-04-20T09:54:49.041Z,1015.13
2018-04-20T09:55:49.037Z,1015.19
2018-04-20T09:56:49.037Z,1015.11
2018-04-20T09:57:49.034Z,1015.14
2018-04-20T09:58:49.037Z,1015.16
2018-04-20T09:59:49.027Z,1015.15
2018-04-20T10:00:49.025Z,1015.14
2018-04-20T10:01:49.020Z,1015.15
2018-04-20T10:02:49.018Z,1015.12
2018-04-20T10:03:49.020Z,1015.14
2018-04-20T10:04:49.013Z,1015.12
2018-04-20T10:05:49.010Z,1015.1
2018-04-20T10:06:49.008Z,1015.09
2018-04-20T10:07:49.091Z,1015.14
2018-04-20T10:08:49.001Z,1015.12
2018-04-20T10:09:49.001Z,1015.14
2018-04-20T10:10:48.996Z,1015.1
2018-04-20T10:11:48.995Z,1015.13
2018-04-20T10:12:49.046Z,1015.14
2018-04-20T10:13:48.991Z,1015.14
2018-04-20T10:14:48.986Z,1015.09
2018-04-20T10:15:48.983Z,1015.06
2018-04-20T10:16:48.978Z,1015.01
2018-04-20T10:17:48.977Z,1015.06
2018-04-20T10:18:48.975Z,1015.04
2018-04-20T10:19:48.971Z,1015.05
2018-04-20T10:20:48.969Z,1015.09
2018-04-20T10:21:48.967Z,1015.03
2018-04-20T10:22:48.964Z,1015.03
2018-04-20T10:23:48.959Z,1015.05
2018-04-20T10:24:48.957Z,1015.05
2018-04-20T10:25:48.953Z,1015.09
2018-04-20T10:26:48.954Z,1015.06
2018-04-20T10:27:48.950Z,1014.98
2018-04-20T10:28:48.947Z,1015
2018-04-20T10:29:48.944Z,1015.02
2018-04-20T10:30:48.941Z,1015.01
2018-04-20T10:31:48.938Z,1014.98
2018-04-20T10:32:48.944Z,1014.97
2018-04-20T10:33:48.933Z,1015
2018-04-20T10:34:48.941Z,1014.97
2018-04-20T10:35:48.985Z,1014.98
2018-04-20T10:36:48.934Z,1014.95
2018-04-20T10:37:48.934Z,1014.95
2018-04-20T10:38:49.127Z,1014.97
2018-04-20T10:39:48.921Z,1014.99
2018-04-20T10:40:48.919Z,1014.99
2018-04-20T10:41:48.918Z,1014.99
2018-04-20T10:42:48.916Z,1014.94
2018-04-20T10:43:48.914Z,1014.92
2018-04-20T10:44:48.919Z,1014.91
2018-04-20T10:45:48.912Z,1014.85
2018-04-20T10:46:48.911Z,1014.89
2018-04-20T10:47:48.914Z,1014.89
2018-04-20T10:48:48.907Z,1014.87
2018-04-20T10:49:48.910Z,1014.9
2018-04-20T10:50:48.906Z,1014.96
2018-04-20T10:51:48.906Z,1015
2018-04-20T10:52:48.904Z,1014.9
2018-04-20T10:53:48.911Z,1014.92
2018-04-20T10:54:48.906Z,1014.92
2018-04-20T10:55:48.901Z,1014.96
2018-04-20T10:56:48.906Z,1014.92
2018-04-20T10:57:48.902Z,1014.97
2018-04-20T10:58:48.903Z,1014.99
2018-04-20T10:59:48.900Z,1014.89
2018-04-20T11:00:48.904Z,1014.88
2018-04-20T11:01:48.904Z,1014.92
2018-04-20T11:02:48.904Z,1014.92
2018-04-20T11:03:48.909Z,1014.9
2018-04-20T11:04:48.910Z,1014.83
2018-04-20T11:05:48.910Z,1014.82
2018-04-20T11:06:48.912Z,1014.85
2018-04-20T11:07:48.913Z,1014.87
2018-04-20T11:08:48.917Z,1014.84
2018-04-20T11:09:48.921Z,1014.83
2018-04-20T11:10:48.926Z,1014.83
2018-04-20T11:11:48.927Z,1014.88
2018-04-20T11:12:48.983Z,1014.86
2018-04-20T11:13:48.939Z,1014.91
2018-04-20T11:14:48.944Z,1014.93
2018-04-20T11:15:48.945Z,1014.98
2018-04-20T11:16:48.951Z,1014.98
2018-04-20T11:17:48.958Z,1014.95
2018-04-20T11:18:48.959Z,1014.94
2018-04-20T11:19:48.965Z,1014.95
2018-04-20T11:20:48.971Z,1014.96
2018-04-20T11:21:48.976Z,1014.97
2018-04-20T11:22:48.982Z,1014.93
2018-04-20T11:23:48.988Z,1014.87
2018-04-20T11:24:48.997Z,1014.89
2018-04-20T11:25:48.999Z,1014.87
2018-04-20T11:26:49.007Z,1014.83
2018-04-20T11:27:49.016Z,1014.86
2018-04-20T11:28:49.019Z,1014.81
2018-04-20T11:29:49.025Z,1014.83
2018-04-20T11:30:49.033Z,1014.81
2018-04-20T11:31:49.038Z,1014.82
2018-04-20T11:32:49.047Z,1014.81
2018-04-20T11:33:49.054Z,1014.79
2018-04-20T11:34:49.061Z,1014.79
2018-04-20T11:35:49.069Z,1014.77
2018-04-20T11:36:49.077Z,1014.8
2018-04-20T11:37:49.085Z,1014.82
2018-04-20T11:38:49.089Z,1014.81
2018-04-20T11:39:49.099Z,1014.8
2018-04-20T11:40:49.106Z,1014.76
2018-04-20T11:41:49.115Z,1014.74
2018-04-20T11:42:49.126Z,1014.73
2018-04-20T11:43:49.128Z,1014.72
2018-04-20T11:44:49.139Z,1014.73
2018-04-20T11:45:49.145Z,1014.77
2018-04-20T11:46:49.157Z,1014.76
2018-04-20T11:47:49.161Z,1014.74
2018-04-20T11:48:49.168Z,1014.69
2018-04-20T11:49:49.176Z,1014.69
2018-04-20T11:50:49.183Z,1014.63
2018-04-20T11:51:49.195Z,1014.66
2018-04-20T11:52:49.201Z,1014.62
2018-04-20T11:53:49.246Z,1014.6
2018-04-20T11:54:49.221Z,1014.59
2018-04-20T11:55:49.226Z,1014.54
2018-04-20T11:56:49.236Z,1014.55
2018-04-20T11:57:49.243Z,1014.55
2018-04-20T11:58:49.253Z,1014.51
2018-04-20T11:59:49.257Z,1014.53
2018-04-20T12:00:49.292Z,1014.48
2018-04-20T12:01:49.277Z,1014.5
2018-04-20T12:02:49.284Z,1014.51
2018-04-20T12:03:49.287Z,1014.49
2018-04-20T12:04:49.306Z,1014.53
2018-04-20T12:05:49.342Z,1014.53
2018-04-20T12:06:49.311Z,1014.51
2018-04-20T12:07:49.322Z,1014.49
2018-04-20T12:08:49.329Z,1014.5